sensor_id;sensor_type;location;lat;lon;timestamp;temperature;humidity
11666;DHT22;5889;51.350;6.708;2023-04-24T00:01:34;11.70;99.90
11666;DHT22;5889;51.350;6.708;2023-04-24T00:04:02;11.70;99.90
11666;DHT22;5889;51.350;6.708;2023-04-24T00:06:29;11.70;99.90
11666;DHT22;5889;51.350;6.708;2023-04-24T00:08:58;11.70;99.90
11666;DHT22;5889;51.350;6.708;2023-04-24T00:11:27;11.70;99.90
11666;DHT22;5889;51.350;6.708;2023-04-24T00:13:54;11.70;99.90
11666;DHT22;5889;51.350;6.708;2023-04-24T00:16:21;11.60;99.90
11666;DHT22;5889;51.350;6.708;2023-04-24T00:18:48;11.60;99.90
11666;DHT22;5889;51.350;6.708;2023-04-24T00:21:18;11.60;99.90
11666;DHT22;5889;51.350;6.708;2023-04-24T00:23:45;11.60;99.90
11666;DHT22;5889;51.350;6.708;2023-04-24T00:26:12;11.60;99.90
11666;DHT22;5889;51.350;6.708;2023-04-24T00:28:40;11.60;99.90
11666;DHT22;5889;51.350;6.708;2023-04-24T00:31:07;11.60;99.90
11666;DHT22;5889;51.350;6.708;2023-04-24T00:33:34;11.50;99.90
11666;DHT22;5889;51.350;6.708;2023-04-24T00:36:01;11.50;99.90
11666;DHT22;5889;51.350;6.708;2023-04-24T00:38:28;11.50;99.90
11666;DHT22;5889;51.350;6.708;2023-04-24T00:40:55;11.50;99.90
11666;DHT22;5889;51.350;6.708;2023-04-24T00:43:22;11.40;99.90
11666;DHT22;5889;51.350;6.708;2023-04-24T00:45:50;11.40;99.90
11666;DHT22;5889;51.350;6.708;2023-04-24T00:48:17;11.30;99.90
11666;DHT22;5889;51.350;6.708;2023-04-24T00:50:45;11.30;99.90
11666;DHT22;5889;51.350;6.708;2023-04-24T00:53:12;11.20;99.90
11666;DHT22;5889;51.350;6.708;2023-04-24T00:55:39;11.10;99.90
11666;DHT22;5889;51.350;6.708;2023-04-24T00:58:06;11.00;99.90
11666;DHT22;5889;51.350;6.708;2023-04-24T01:00:33;11.00;99.90
11666;DHT22;5889;51.350;6.708;2023-04-24T01:03:04;10.90;99.90
11666;DHT22;5889;51.350;6.708;2023-04-24T01:05:33;10.90;99.90
11666;DHT22;5889;51.350;6.708;2023-04-24T01:08:00;10.80;99.90
11666;DHT22;5889;51.350;6.708;2023-04-24T01:10:29;10.70;99.90
11666;DHT22;5889;51.350;6.708;2023-04-24T01:12:58;10.60;99.90
11666;DHT22;5889;51.350;6.708;2023-04-24T01:15:25;10.60;99.90
11666;DHT22;5889;51.350;6.708;2023-04-24T01:17:52;10.50;99.90
11666;DHT22;5889;51.350;6.708;2023-04-24T01:20:21;10.40;99.90
11666;DHT22;5889;51.350;6.708;2023-04-24T01:22:49;10.40;99.90
11666;DHT22;5889;51.350;6.708;2023-04-24T01:25:16;10.30;99.90
11666;DHT22;5889;51.350;6.708;2023-04-24T01:27:43;10.30;99.90
11666;DHT22;5889;51.350;6.708;2023-04-24T01:30:12;10.20;99.90
11666;DHT22;5889;51.350;6.708;2023-04-24T01:32:39;10.20;99.90
11666;DHT22;5889;51.350;6.708;2023-04-24T01:35:07;10.20;99.90
11666;DHT22;5889;51.350;6.708;2023-04-24T01:37:34;10.20;99.90
11666;DHT22;5889;51.350;6.708;2023-04-24T01:40:05;10.20;99.90
11666;DHT22;5889;51.350;6.708;2023-04-24T01:42:32;10.20;99.90
11666;DHT22;5889;51.350;6.708;2023-04-24T01:45:01;10.20;99.90
11666;DHT22;5889;51.350;6.708;2023-04-24T01:47:30;10.20;99.90
11666;DHT22;5889;51.350;6.708;2023-04-24T01:49:58;10.20;99.90
11666;DHT22;5889;51.350;6.708;2023-04-24T01:52:25;10.20;99.90
11666;DHT22;5889;51.350;6.708;2023-04-24T01:54:52;10.10;99.90
11666;DHT22;5889;51.350;6.708;2023-04-24T01:57:22;10.10;99.90
11666;DHT22;5889;51.350;6.708;2023-04-24T01:59:53;10.10;99.90
11666;DHT22;5889;51.350;6.708;2023-04-24T02:02:20;10.10;99.90
11666;DHT22;5889;51.350;6.708;2023-04-24T02:04:49;10.10;99.90
11666;DHT22;5889;51.350;6.708;2023-04-24T02:07:16;10.10;99.90
11666;DHT22;5889;51.350;6.708;2023-04-24T02:09:43;10.10;99.90
11666;DHT22;5889;51.350;6.708;2023-04-24T02:12:10;10.00;99.90
11666;DHT22;5889;51.350;6.708;2023-04-24T02:14:39;10.00;99.90
11666;DHT22;5889;51.350;6.708;2023-04-24T02:17:06;10.10;99.90
11666;DHT22;5889;51.350;6.708;2023-04-24T02:19:33;10.00;99.90
11666;DHT22;5889;51.350;6.708;2023-04-24T02:22:00;10.00;99.90
11666;DHT22;5889;51.350;6.708;2023-04-24T02:24:27;10.00;99.90
11666;DHT22;5889;51.350;6.708;2023-04-24T02:26:54;10.00;99.90
11666;DHT22;5889;51.350;6.708;2023-04-24T02:29:21;10.00;99.90
11666;DHT22;5889;51.350;6.708;2023-04-24T02:31:49;10.00;99.90
11666;DHT22;5889;51.350;6.708;2023-04-24T02:34:16;10.00;99.90
11666;DHT22;5889;51.350;6.708;2023-04-24T02:36:43;10.00;99.90
11666;DHT22;5889;51.350;6.708;2023-04-24T02:39:10;10.10;99.90
11666;DHT22;5889;51.350;6.708;2023-04-24T02:41:37;10.10;99.90
11666;DHT22;5889;51.350;6.708;2023-04-24T02:44:04;10.10;99.90
11666;DHT22;5889;51.350;6.708;2023-04-24T02:46:31;10.10;99.90
11666;DHT22;5889;51.350;6.708;2023-04-24T02:48:59;10.10;99.90
11666;DHT22;5889;51.350;6.708;2023-04-24T02:51:26;10.10;99.90
11666;DHT22;5889;51.350;6.708;2023-04-24T02:53:53;10.10;99.90
11666;DHT22;5889;51.350;6.708;2023-04-24T02:56:20;10.10;99.90
11666;DHT22;5889;51.350;6.708;2023-04-24T02:58:47;10.10;99.90
11666;DHT22;5889;51.350;6.708;2023-04-24T03:01:14;10.10;99.90
11666;DHT22;5889;51.350;6.708;2023-04-24T03:03:41;10.10;99.90
11666;DHT22;5889;51.350;6.708;2023-04-24T03:06:09;10.10;99.90
11666;DHT22;5889;51.350;6.708;2023-04-24T03:08:37;10.10;99.90
11666;DHT22;5889;51.350;6.708;2023-04-24T03:11:04;10.10;99.90
11666;DHT22;5889;51.350;6.708;2023-04-24T03:13:30;10.10;99.90
11666;DHT22;5889;51.350;6.708;2023-04-24T03:15:57;10.10;99.90
11666;DHT22;5889;51.350;6.708;2023-04-24T03:18:24;10.10;99.90
11666;DHT22;5889;51.350;6.708;2023-04-24T03:20:53;10.10;99.90
11666;DHT22;5889;51.350;6.708;2023-04-24T03:23:21;10.10;99.90
11666;DHT22;5889;51.350;6.708;2023-04-24T03:25:48;10.10;99.90
11666;DHT22;5889;51.350;6.708;2023-04-24T03:28:15;10.10;99.90
11666;DHT22;5889;51.350;6.708;2023-04-24T03:30:42;10.10;99.90
11666;DHT22;5889;51.350;6.708;2023-04-24T03:33:09;10.10;99.90
11666;DHT22;5889;51.350;6.708;2023-04-24T03:35:36;10.10;99.90
11666;DHT22;5889;51.350;6.708;2023-04-24T03:38:03;10.10;99.90
11666;DHT22;5889;51.350;6.708;2023-04-24T03:40:32;10.10;99.90
11666;DHT22;5889;51.350;6.708;2023-04-24T03:43:00;10.10;99.90
11666;DHT22;5889;51.350;6.708;2023-04-24T03:45:27;10.10;99.90
11666;DHT22;5889;51.350;6.708;2023-04-24T03:47:54;10.10;99.90
11666;DHT22;5889;51.350;6.708;2023-04-24T03:50:21;10.10;99.90
11666;DHT22;5889;51.350;6.708;2023-04-24T03:52:48;10.10;99.90
11666;DHT22;5889;51.350;6.708;2023-04-24T03:55:15;10.10;99.90
11666;DHT22;5889;51.350;6.708;2023-04-24T03:57:43;10.10;99.90
11666;DHT22;5889;51.350;6.708;2023-04-24T04:00:11;10.20;99.90
11666;DHT22;5889;51.350;6.708;2023-04-24T04:02:39;10.10;99.90
11666;DHT22;5889;51.350;6.708;2023-04-24T04:05:07;10.10;99.90
11666;DHT22;5889;51.350;6.708;2023-04-24T04:07:34;10.10;99.90
11666;DHT22;5889;51.350;6.708;2023-04-24T04:10:01;10.10;99.90
11666;DHT22;5889;51.350;6.708;2023-04-24T04:12:28;10.20;99.90
11666;DHT22;5889;51.350;6.708;2023-04-24T04:14:56;10.10;99.90
11666;DHT22;5889;51.350;6.708;2023-04-24T04:17:24;10.20;99.90
11666;DHT22;5889;51.350;6.708;2023-04-24T04:19:51;10.20;99.90
11666;DHT22;5889;51.350;6.708;2023-04-24T04:22:18;10.20;99.90
11666;DHT22;5889;51.350;6.708;2023-04-24T04:24:45;10.20;99.90
11666;DHT22;5889;51.350;6.708;2023-04-24T04:27:11;10.20;99.90
11666;DHT22;5889;51.350;6.708;2023-04-24T04:29:39;10.20;99.90
11666;DHT22;5889;51.350;6.708;2023-04-24T04:32:07;10.20;99.90
11666;DHT22;5889;51.350;6.708;2023-04-24T04:34:34;10.20;99.90
11666;DHT22;5889;51.350;6.708;2023-04-24T04:37:03;10.20;99.90
11666;DHT22;5889;51.350;6.708;2023-04-24T04:39:30;10.20;99.90
11666;DHT22;5889;51.350;6.708;2023-04-24T04:41:57;10.20;99.90
11666;DHT22;5889;51.350;6.708;2023-04-24T04:44:24;10.20;99.90
11666;DHT22;5889;51.350;6.708;2023-04-24T04:46:51;10.20;99.90
11666;DHT22;5889;51.350;6.708;2023-04-24T04:49:23;10.10;99.90
11666;DHT22;5889;51.350;6.708;2023-04-24T04:51:50;10.20;99.90
11666;DHT22;5889;51.350;6.708;2023-04-24T04:54:17;10.20;99.90
11666;DHT22;5889;51.350;6.708;2023-04-24T04:56:44;10.10;99.90
11666;DHT22;5889;51.350;6.708;2023-04-24T04:59:11;10.10;99.90
11666;DHT22;5889;51.350;6.708;2023-04-24T05:01:38;10.10;99.90
11666;DHT22;5889;51.350;6.708;2023-04-24T05:04:05;10.10;99.90
11666;DHT22;5889;51.350;6.708;2023-04-24T05:06:34;10.00;99.90
11666;DHT22;5889;51.350;6.708;2023-04-24T05:09:01;10.00;99.90
11666;DHT22;5889;51.350;6.708;2023-04-24T05:11:29;9.90;99.90
11666;DHT22;5889;51.350;6.708;2023-04-24T05:13:56;9.80;99.90
11666;DHT22;5889;51.350;6.708;2023-04-24T05:16:23;9.80;99.90
11666;DHT22;5889;51.350;6.708;2023-04-24T05:18:50;9.80;99.90
11666;DHT22;5889;51.350;6.708;2023-04-24T05:21:17;9.70;99.90
11666;DHT22;5889;51.350;6.708;2023-04-24T05:23:45;9.70;99.90
11666;DHT22;5889;51.350;6.708;2023-04-24T05:26:13;9.70;99.90
11666;DHT22;5889;51.350;6.708;2023-04-24T05:28:41;9.60;99.90
11666;DHT22;5889;51.350;6.708;2023-04-24T05:31:07;9.70;99.90
11666;DHT22;5889;51.350;6.708;2023-04-24T05:33:34;9.60;99.90
11666;DHT22;5889;51.350;6.708;2023-04-24T05:36:01;9.60;99.90
11666;DHT22;5889;51.350;6.708;2023-04-24T05:38:28;9.60;99.90
11666;DHT22;5889;51.350;6.708;2023-04-24T05:40:57;9.60;99.90
11666;DHT22;5889;51.350;6.708;2023-04-24T05:43:24;9.60;99.90
11666;DHT22;5889;51.350;6.708;2023-04-24T05:45:51;9.60;99.90
11666;DHT22;5889;51.350;6.708;2023-04-24T05:48:19;9.60;99.90
11666;DHT22;5889;51.350;6.708;2023-04-24T05:50:52;9.70;99.90
11666;DHT22;5889;51.350;6.708;2023-04-24T05:53:22;9.60;99.90
11666;DHT22;5889;51.350;6.708;2023-04-24T05:55:49;9.60;99.90
11666;DHT22;5889;51.350;6.708;2023-04-24T05:58:18;9.60;99.90
11666;DHT22;5889;51.350;6.708;2023-04-24T06:00:56;9.60;99.90
11666;DHT22;5889;51.350;6.708;2023-04-24T06:03:42;9.60;99.90
11666;DHT22;5889;51.350;6.708;2023-04-24T06:06:14;9.60;99.90
11666;DHT22;5889;51.350;6.708;2023-04-24T06:08:41;9.60;99.90
11666;DHT22;5889;51.350;6.708;2023-04-24T06:11:09;9.60;99.90
11666;DHT22;5889;51.350;6.708;2023-04-24T06:13:38;9.60;99.90
11666;DHT22;5889;51.350;6.708;2023-04-24T06:16:05;9.60;99.90
11666;DHT22;5889;51.350;6.708;2023-04-24T06:18:32;9.60;99.90
11666;DHT22;5889;51.350;6.708;2023-04-24T07:10:56;9.70;99.90
11666;DHT22;5889;51.350;6.708;2023-04-24T07:13:23;9.60;99.90
11666;DHT22;5889;51.350;6.708;2023-04-24T07:15:50;9.60;99.90
11666;DHT22;5889;51.350;6.708;2023-04-24T07:18:19;9.60;99.90
11666;DHT22;5889;51.350;6.708;2023-04-24T07:20:46;9.60;99.90
11666;DHT22;5889;51.350;6.708;2023-04-24T07:23:19;9.60;99.90
11666;DHT22;5889;51.350;6.708;2023-04-24T07:25:46;9.50;99.90
11666;DHT22;5889;51.350;6.708;2023-04-24T07:28:15;9.40;99.90
11666;DHT22;5889;51.350;6.708;2023-04-24T07:30:43;9.40;99.90
11666;DHT22;5889;51.350;6.708;2023-04-24T07:33:10;9.40;99.90
11666;DHT22;5889;51.350;6.708;2023-04-24T07:35:38;9.30;99.90
11666;DHT22;5889;51.350;6.708;2023-04-24T07:38:05;9.30;99.90
11666;DHT22;5889;51.350;6.708;2023-04-24T07:40:32;9.20;99.90
11666;DHT22;5889;51.350;6.708;2023-04-24T07:42:59;9.20;99.90
11666;DHT22;5889;51.350;6.708;2023-04-24T07:45:27;9.10;99.90
11666;DHT22;5889;51.350;6.708;2023-04-24T07:47:54;9.10;99.90
11666;DHT22;5889;51.350;6.708;2023-04-24T07:50:21;9.00;99.90
11666;DHT22;5889;51.350;6.708;2023-04-24T07:52:49;9.00;99.90
11666;DHT22;5889;51.350;6.708;2023-04-24T07:55:16;9.00;99.90
11666;DHT22;5889;51.350;6.708;2023-04-24T08:01:14;8.90;99.90
11666;DHT22;5889;51.350;6.708;2023-04-24T08:03:46;9.00;99.90
11666;DHT22;5889;51.350;6.708;2023-04-24T08:06:24;8.90;99.90
11666;DHT22;5889;51.350;6.708;2023-04-24T08:08:56;9.00;99.90
11666;DHT22;5889;51.350;6.708;2023-04-24T08:11:23;9.00;99.90
11666;DHT22;5889;51.350;6.708;2023-04-24T08:13:51;9.00;99.90
11666;DHT22;5889;51.350;6.708;2023-04-24T08:16:19;9.00;99.90
11666;DHT22;5889;51.350;6.708;2023-04-24T08:18:46;9.10;99.90
11666;DHT22;5889;51.350;6.708;2023-04-24T08:21:13;9.10;99.90
11666;DHT22;5889;51.350;6.708;2023-04-24T08:23:42;9.20;99.90
11666;DHT22;5889;51.350;6.708;2023-04-24T08:26:09;9.20;99.90
11666;DHT22;5889;51.350;6.708;2023-04-24T08:28:36;9.20;99.90
11666;DHT22;5889;51.350;6.708;2023-04-24T08:31:03;9.20;99.90
11666;DHT22;5889;51.350;6.708;2023-04-24T08:33:32;9.20;99.90
11666;DHT22;5889;51.350;6.708;2023-04-24T08:36:00;9.20;99.90
11666;DHT22;5889;51.350;6.708;2023-04-24T08:38:27;9.30;99.90
11666;DHT22;5889;51.350;6.708;2023-04-24T08:40:54;9.30;99.90
11666;DHT22;5889;51.350;6.708;2023-04-24T08:43:23;9.40;99.90
11666;DHT22;5889;51.350;6.708;2023-04-24T08:45:50;9.40;99.90
11666;DHT22;5889;51.350;6.708;2023-04-24T08:48:17;9.40;99.90
11666;DHT22;5889;51.350;6.708;2023-04-24T08:50:46;9.40;99.90
11666;DHT22;5889;51.350;6.708;2023-04-24T08:53:14;9.50;99.90
11666;DHT22;5889;51.350;6.708;2023-04-24T08:55:43;9.40;99.90
11666;DHT22;5889;51.350;6.708;2023-04-24T08:58:14;9.30;99.90
11666;DHT22;5889;51.350;6.708;2023-04-24T09:00:41;9.30;99.90
11666;DHT22;5889;51.350;6.708;2023-04-24T09:03:13;9.20;99.90
11666;DHT22;5889;51.350;6.708;2023-04-24T09:05:41;9.10;99.90
11666;DHT22;5889;51.350;6.708;2023-04-24T09:08:13;8.90;99.90
11666;DHT22;5889;51.350;6.708;2023-04-24T09:10:40;8.90;99.90
11666;DHT22;5889;51.350;6.708;2023-04-24T09:13:08;8.80;99.90
11666;DHT22;5889;51.350;6.708;2023-04-24T09:15:36;8.60;99.90
11666;DHT22;5889;51.350;6.708;2023-04-24T09:18:03;8.60;99.90
11666;DHT22;5889;51.350;6.708;2023-04-24T09:20:31;8.60;99.90
11666;DHT22;5889;51.350;6.708;2023-04-24T09:22:58;8.60;99.90
11666;DHT22;5889;51.350;6.708;2023-04-24T09:25:31;8.60;99.90
11666;DHT22;5889;51.350;6.708;2023-04-24T09:28:02;8.50;99.90
11666;DHT22;5889;51.350;6.708;2023-04-24T09:30:29;8.50;99.90
11666;DHT22;5889;51.350;6.708;2023-04-24T09:33:12;8.50;99.90
11666;DHT22;5889;51.350;6.708;2023-04-24T09:35:41;8.50;99.90
11666;DHT22;5889;51.350;6.708;2023-04-24T09:38:09;8.50;99.90
11666;DHT22;5889;51.350;6.708;2023-04-24T09:40:37;8.50;99.90
11666;DHT22;5889;51.350;6.708;2023-04-24T09:43:04;8.50;99.90
11666;DHT22;5889;51.350;6.708;2023-04-24T09:45:37;8.50;99.90
11666;DHT22;5889;51.350;6.708;2023-04-24T09:48:04;8.60;99.90
11666;DHT22;5889;51.350;6.708;2023-04-24T09:50:33;8.60;99.90
11666;DHT22;5889;51.350;6.708;2023-04-24T09:53:03;8.70;99.90
11666;DHT22;5889;51.350;6.708;2023-04-24T09:55:31;8.70;99.90
11666;DHT22;5889;51.350;6.708;2023-04-24T09:58:00;8.80;99.90
11666;DHT22;5889;51.350;6.708;2023-04-24T10:00:32;8.90;99.90
11666;DHT22;5889;51.350;6.708;2023-04-24T10:03:13;9.00;99.90
11666;DHT22;5889;51.350;6.708;2023-04-24T10:05:46;9.10;99.90
11666;DHT22;5889;51.350;6.708;2023-04-24T10:08:13;9.10;99.90
11666;DHT22;5889;51.350;6.708;2023-04-24T10:10:42;9.20;99.90
11666;DHT22;5889;51.350;6.708;2023-04-24T10:13:13;9.20;99.90
11666;DHT22;5889;51.350;6.708;2023-04-24T10:15:41;9.30;99.90
11666;DHT22;5889;51.350;6.708;2023-04-24T10:18:09;9.20;99.90
11666;DHT22;5889;51.350;6.708;2023-04-24T10:20:39;9.30;99.90
11666;DHT22;5889;51.350;6.708;2023-04-24T10:23:06;9.40;99.90
11666;DHT22;5889;51.350;6.708;2023-04-24T10:25:34;9.40;99.90
11666;DHT22;5889;51.350;6.708;2023-04-24T10:28:19;9.30;99.90
11666;DHT22;5889;51.350;6.708;2023-04-24T10:30:56;9.40;99.90
11666;DHT22;5889;51.350;6.708;2023-04-24T10:49:11;9.50;99.90
11666;DHT22;5889;51.350;6.708;2023-04-24T10:51:46;9.50;99.90
11666;DHT22;5889;51.350;6.708;2023-04-24T10:54:25;9.60;99.90
11666;DHT22;5889;51.350;6.708;2023-04-24T10:56:52;9.70;99.90
11666;DHT22;5889;51.350;6.708;2023-04-24T10:59:26;9.90;99.90
11666;DHT22;5889;51.350;6.708;2023-04-24T11:01:54;9.90;99.90
11666;DHT22;5889;51.350;6.708;2023-04-24T11:04:58;10.00;99.90
11666;DHT22;5889;51.350;6.708;2023-04-24T11:08:13;10.10;99.90
11666;DHT22;5889;51.350;6.708;2023-04-24T11:14:29;10.00;99.90
11666;DHT22;5889;51.350;6.708;2023-04-24T11:20:11;9.80;99.90
11666;DHT22;5889;51.350;6.708;2023-04-24T11:22:43;9.80;99.90
11666;DHT22;5889;51.350;6.708;2023-04-24T11:25:22;9.90;99.90
11666;DHT22;5889;51.350;6.708;2023-04-24T11:37:08;10.60;99.90
11666;DHT22;5889;51.350;6.708;2023-04-24T11:43:12;11.00;99.90
11666;DHT22;5889;51.350;6.708;2023-04-24T11:48:45;11.00;99.90
11666;DHT22;5889;51.350;6.708;2023-04-24T11:51:12;11.20;99.90
11666;DHT22;5889;51.350;6.708;2023-04-24T11:53:40;11.20;99.90
11666;DHT22;5889;51.350;6.708;2023-04-24T11:56:09;11.20;99.90
11666;DHT22;5889;51.350;6.708;2023-04-24T11:58:36;11.20;99.90
11666;DHT22;5889;51.350;6.708;2023-04-24T12:01:03;11.20;99.90
11666;DHT22;5889;51.350;6.708;2023-04-24T12:03:31;11.10;99.90
11666;DHT22;5889;51.350;6.708;2023-04-24T12:06:06;11.10;99.90
11666;DHT22;5889;51.350;6.708;2023-04-24T12:08:34;11.10;99.90
11666;DHT22;5889;51.350;6.708;2023-04-24T12:11:04;11.10;99.90
11666;DHT22;5889;51.350;6.708;2023-04-24T12:13:32;11.00;99.90
11666;DHT22;5889;51.350;6.708;2023-04-24T12:15:59;11.00;99.90
11666;DHT22;5889;51.350;6.708;2023-04-24T12:18:28;10.90;99.90
11666;DHT22;5889;51.350;6.708;2023-04-24T12:20:55;10.70;99.90
11666;DHT22;5889;51.350;6.708;2023-04-24T12:23:34;10.50;99.90
11666;DHT22;5889;51.350;6.708;2023-04-24T12:26:05;10.30;99.90
11666;DHT22;5889;51.350;6.708;2023-04-24T12:28:35;10.30;99.90
11666;DHT22;5889;51.350;6.708;2023-04-24T12:31:03;10.30;99.90
11666;DHT22;5889;51.350;6.708;2023-04-24T12:33:36;10.40;99.90
11666;DHT22;5889;51.350;6.708;2023-04-24T12:36:24;10.60;99.90
11666;DHT22;5889;51.350;6.708;2023-04-24T12:38:59;10.80;99.90
11666;DHT22;5889;51.350;6.708;2023-04-24T12:41:33;10.80;99.90
11666;DHT22;5889;51.350;6.708;2023-04-24T12:44:10;10.80;99.90
11666;DHT22;5889;51.350;6.708;2023-04-24T12:46:43;10.70;99.90
11666;DHT22;5889;51.350;6.708;2023-04-24T12:49:14;10.50;99.90
11666;DHT22;5889;51.350;6.708;2023-04-24T12:51:43;10.60;99.90
11666;DHT22;5889;51.350;6.708;2023-04-24T12:54:15;10.60;99.90
11666;DHT22;5889;51.350;6.708;2023-04-24T12:56:50;10.60;99.90
11666;DHT22;5889;51.350;6.708;2023-04-24T12:59:20;10.40;99.90
11666;DHT22;5889;51.350;6.708;2023-04-24T13:01:49;10.30;99.90
11666;DHT22;5889;51.350;6.708;2023-04-24T13:04:21;10.30;99.90
11666;DHT22;5889;51.350;6.708;2023-04-24T13:06:50;10.40;99.90
11666;DHT22;5889;51.350;6.708;2023-04-24T13:09:19;10.50;99.90
11666;DHT22;5889;51.350;6.708;2023-04-24T13:11:55;10.60;99.90
11666;DHT22;5889;51.350;6.708;2023-04-24T13:14:27;10.60;99.90
11666;DHT22;5889;51.350;6.708;2023-04-24T13:17:00;10.70;99.90
11666;DHT22;5889;51.350;6.708;2023-04-24T13:19:29;10.70;99.90
11666;DHT22;5889;51.350;6.708;2023-04-24T13:22:04;10.70;99.90
11666;DHT22;5889;51.350;6.708;2023-04-24T13:24:34;10.70;99.90
11666;DHT22;5889;51.350;6.708;2023-04-24T13:27:07;10.80;99.90
11666;DHT22;5889;51.350;6.708;2023-04-24T13:29:37;10.80;99.90
11666;DHT22;5889;51.350;6.708;2023-04-24T13:32:06;11.10;99.90
11666;DHT22;5889;51.350;6.708;2023-04-24T13:34:35;11.30;99.90
11666;DHT22;5889;51.350;6.708;2023-04-24T13:37:03;11.50;99.90
11666;DHT22;5889;51.350;6.708;2023-04-24T13:39:32;11.60;99.90
11666;DHT22;5889;51.350;6.708;2023-04-24T13:42:00;11.80;99.90
11666;DHT22;5889;51.350;6.708;2023-04-24T13:44:30;11.70;99.90
11666;DHT22;5889;51.350;6.708;2023-04-24T13:46:59;11.70;99.90
11666;DHT22;5889;51.350;6.708;2023-04-24T13:49:27;11.40;99.90
11666;DHT22;5889;51.350;6.708;2023-04-24T13:51:56;11.40;99.90
11666;DHT22;5889;51.350;6.708;2023-04-24T13:54:24;11.40;99.90
11666;DHT22;5889;51.350;6.708;2023-04-24T13:56:52;11.30;99.90
11666;DHT22;5889;51.350;6.708;2023-04-24T13:59:20;11.40;99.90
11666;DHT22;5889;51.350;6.708;2023-04-24T14:01:50;11.70;99.90
11666;DHT22;5889;51.350;6.708;2023-04-24T14:04:18;12.10;99.90
11666;DHT22;5889;51.350;6.708;2023-04-24T14:06:49;12.30;99.90
11666;DHT22;5889;51.350;6.708;2023-04-24T14:09:24;12.40;99.90
11666;DHT22;5889;51.350;6.708;2023-04-24T14:12:03;12.50;99.90
11666;DHT22;5889;51.350;6.708;2023-04-24T14:14:38;12.40;99.90
11666;DHT22;5889;51.350;6.708;2023-04-24T14:17:11;12.40;99.90
11666;DHT22;5889;51.350;6.708;2023-04-24T14:19:40;12.40;99.90
11666;DHT22;5889;51.350;6.708;2023-04-24T14:22:07;12.30;99.90
11666;DHT22;5889;51.350;6.708;2023-04-24T14:24:34;12.20;99.90
11666;DHT22;5889;51.350;6.708;2023-04-24T14:27:01;12.20;99.90
11666;DHT22;5889;51.350;6.708;2023-04-24T14:29:28;12.10;99.90
11666;DHT22;5889;51.350;6.708;2023-04-24T14:31:55;12.10;99.90
11666;DHT22;5889;51.350;6.708;2023-04-24T14:34:23;12.10;99.90
11666;DHT22;5889;51.350;6.708;2023-04-24T14:36:53;12.00;99.90
11666;DHT22;5889;51.350;6.708;2023-04-24T14:39:22;12.00;99.90
11666;DHT22;5889;51.350;6.708;2023-04-24T14:41:49;12.00;99.90
11666;DHT22;5889;51.350;6.708;2023-04-24T14:44:16;12.00;99.90
11666;DHT22;5889;51.350;6.708;2023-04-24T14:46:43;12.00;99.90
11666;DHT22;5889;51.350;6.708;2023-04-24T14:49:10;11.90;99.90
11666;DHT22;5889;51.350;6.708;2023-04-24T14:51:39;11.70;99.90
11666;DHT22;5889;51.350;6.708;2023-04-24T14:54:06;11.60;99.90
11666;DHT22;5889;51.350;6.708;2023-04-24T14:56:33;11.50;99.90
11666;DHT22;5889;51.350;6.708;2023-04-24T15:02:08;11.60;99.90
11666;DHT22;5889;51.350;6.708;2023-04-24T15:04:36;11.70;99.90
11666;DHT22;5889;51.350;6.708;2023-04-24T15:09:49;11.80;99.90
11666;DHT22;5889;51.350;6.708;2023-04-24T15:12:22;11.80;99.90
11666;DHT22;5889;51.350;6.708;2023-04-24T15:14:49;11.90;99.90
11666;DHT22;5889;51.350;6.708;2023-04-24T15:17:17;11.80;99.90
11666;DHT22;5889;51.350;6.708;2023-04-24T15:19:45;11.70;99.90
11666;DHT22;5889;51.350;6.708;2023-04-24T15:22:34;11.40;99.90
11666;DHT22;5889;51.350;6.708;2023-04-24T15:25:13;11.20;99.90
11666;DHT22;5889;51.350;6.708;2023-04-24T15:27:48;11.30;99.90
11666;DHT22;5889;51.350;6.708;2023-04-24T15:33:00;11.60;99.90
11666;DHT22;5889;51.350;6.708;2023-04-24T15:35:45;11.60;99.90
11666;DHT22;5889;51.350;6.708;2023-04-24T15:38:40;11.40;99.90
11666;DHT22;5889;51.350;6.708;2023-04-24T15:41:18;11.40;99.90
11666;DHT22;5889;51.350;6.708;2023-04-24T15:43:45;11.40;99.90
11666;DHT22;5889;51.350;6.708;2023-04-24T15:46:19;11.50;99.90
11666;DHT22;5889;51.350;6.708;2023-04-24T15:48:59;11.50;99.90
11666;DHT22;5889;51.350;6.708;2023-04-24T15:51:39;11.30;99.90
11666;DHT22;5889;51.350;6.708;2023-04-24T15:54:06;11.10;99.90
11666;DHT22;5889;51.350;6.708;2023-04-24T15:56:35;11.20;99.90
11666;DHT22;5889;51.350;6.708;2023-04-24T15:59:02;11.40;99.90
11666;DHT22;5889;51.350;6.708;2023-04-24T16:01:29;11.30;99.90
11666;DHT22;5889;51.350;6.708;2023-04-24T16:04:03;11.30;99.90
11666;DHT22;5889;51.350;6.708;2023-04-24T16:06:33;11.40;99.90
11666;DHT22;5889;51.350;6.708;2023-04-24T16:09:00;11.70;99.90
11666;DHT22;5889;51.350;6.708;2023-04-24T16:11:27;11.80;99.90
11666;DHT22;5889;51.350;6.708;2023-04-24T16:14:04;11.90;99.90
11666;DHT22;5889;51.350;6.708;2023-04-24T16:16:38;12.00;99.90
11666;DHT22;5889;51.350;6.708;2023-04-24T16:19:14;12.30;99.90
11666;DHT22;5889;51.350;6.708;2023-04-24T16:21:46;12.30;99.90
11666;DHT22;5889;51.350;6.708;2023-04-24T16:24:20;12.40;99.90
11666;DHT22;5889;51.350;6.708;2023-04-24T16:26:55;12.30;99.90
11666;DHT22;5889;51.350;6.708;2023-04-24T16:29:37;12.20;99.90
11666;DHT22;5889;51.350;6.708;2023-04-24T16:32:29;12.20;99.90
11666;DHT22;5889;51.350;6.708;2023-04-24T16:35:11;12.00;99.90
11666;DHT22;5889;51.350;6.708;2023-04-24T16:54:45;11.30;99.90
11666;DHT22;5889;51.350;6.708;2023-04-24T16:57:17;11.10;99.90
11666;DHT22;5889;51.350;6.708;2023-04-24T16:59:46;11.00;99.90
11666;DHT22;5889;51.350;6.708;2023-04-24T17:02:14;11.00;99.90
11666;DHT22;5889;51.350;6.708;2023-04-24T17:04:44;11.00;99.90
11666;DHT22;5889;51.350;6.708;2023-04-24T17:07:14;10.80;99.90
11666;DHT22;5889;51.350;6.708;2023-04-24T17:09:49;10.40;99.90
11666;DHT22;5889;51.350;6.708;2023-04-24T17:12:19;10.20;99.90
11666;DHT22;5889;51.350;6.708;2023-04-24T17:14:48;10.20;99.90
11666;DHT22;5889;51.350;6.708;2023-04-24T17:17:20;10.40;99.90
11666;DHT22;5889;51.350;6.708;2023-04-24T17:19:54;10.50;99.90
11666;DHT22;5889;51.350;6.708;2023-04-24T17:22:27;10.60;99.90
11666;DHT22;5889;51.350;6.708;2023-04-24T17:25:03;10.60;99.90
11666;DHT22;5889;51.350;6.708;2023-04-24T17:27:31;10.60;99.90
11666;DHT22;5889;51.350;6.708;2023-04-24T17:29:58;10.70;99.90
11666;DHT22;5889;51.350;6.708;2023-04-24T17:32:25;10.80;99.90
11666;DHT22;5889;51.350;6.708;2023-04-24T17:34:52;10.90;99.90
11666;DHT22;5889;51.350;6.708;2023-04-24T17:37:19;11.00;99.90
11666;DHT22;5889;51.350;6.708;2023-04-24T17:39:48;11.10;99.90
11666;DHT22;5889;51.350;6.708;2023-04-24T17:42:16;11.20;99.90
11666;DHT22;5889;51.350;6.708;2023-04-24T17:44:43;11.50;99.90
11666;DHT22;5889;51.350;6.708;2023-04-24T17:47:10;11.50;99.90
11666;DHT22;5889;51.350;6.708;2023-04-24T17:49:37;11.70;99.90
11666;DHT22;5889;51.350;6.708;2023-04-24T17:52:05;11.80;99.90
11666;DHT22;5889;51.350;6.708;2023-04-24T17:54:32;11.70;99.90
11666;DHT22;5889;51.350;6.708;2023-04-24T17:56:59;11.00;99.90
11666;DHT22;5889;51.350;6.708;2023-04-24T17:59:27;10.60;99.90
11666;DHT22;5889;51.350;6.708;2023-04-24T18:01:54;10.40;99.90